createdAt,value
2022-08-26T00:00:18.529Z,100069.84
2022-08-26T00:00:59.628Z,100063.28
2022-08-26T00:01:39.518Z,100074.91
2022-08-26T00:02:20.707Z,100068.56
2022-08-26T00:03:02.547Z,100067.72
2022-08-26T00:03:43.611Z,100070.03
2022-08-26T00:04:23.749Z,100070.88
2022-08-26T00:05:04.588Z,100076.81
2022-08-26T00:05:45.541Z,100075.97
2022-08-26T00:06:26.595Z,100075.16
2022-08-26T00:07:06.514Z,100061.38
2022-08-26T00:07:46.580Z,100082.56
2022-08-26T00:08:28.562Z,100062.22
2022-08-26T00:09:10.731Z,100075.97
2022-08-26T00:09:54.469Z,100072.38
2022-08-26T00:10:35.564Z,100070.69
2022-08-26T00:11:16.494Z,100080.63
2022-08-26T00:12:06.573Z,100059.88
2022-08-26T00:12:47.518Z,100074.91
2022-08-26T00:13:27.572Z,100069.63
2022-08-26T00:14:07.540Z,100075.34
2022-08-26T00:14:48.572Z,100064.94
2022-08-26T00:15:30.512Z,100074.72
2022-08-26T00:16:13.601Z,100066.03
2022-08-26T00:16:53.542Z,100069.22
2022-08-26T00:17:35.569Z,100056.69
2022-08-26T00:18:22.351Z,100057.75
2022-08-26T00:19:04.010Z,100058.00
2022-08-26T00:19:44.531Z,100063.47
2022-08-26T00:20:32.591Z,100066.22
2022-08-26T00:21:15.507Z,100059.28
2022-08-26T00:21:56.621Z,100061.78
2022-08-26T00:22:36.503Z,100052.03
2022-08-26T00:23:16.604Z,100054.78
2022-08-26T00:23:56.492Z,100054.38
2022-08-26T00:24:36.637Z,100057.16
2022-08-26T00:25:18.593Z,100065.19
2022-08-26T00:26:00.559Z,100059.88
2022-08-26T00:26:41.653Z,100064.56
2022-08-26T00:27:22.572Z,100066.47
2022-08-26T00:28:02.488Z,100059.03
2022-08-26T00:28:42.563Z,100064.13
2022-08-26T00:29:23.492Z,100064.53
2022-08-26T00:30:03.555Z,100058.41
2022-08-26T00:30:46.548Z,100053.94
2022-08-26T00:31:28.733Z,100057.75
2022-08-26T00:32:12.503Z,100050.75
2022-08-26T00:32:57.061Z,100064.72
2022-08-26T00:33:37.484Z,100049.06
2022-08-26T00:34:19.548Z,100056.28
2022-08-26T00:34:59.481Z,100053.72
2022-08-26T00:35:43.840Z,100058.59
2022-08-26T00:36:25.582Z,100066.84
2022-08-26T00:37:13.377Z,100049.50
2022-08-26T00:37:56.492Z,100061.97
2022-08-26T00:38:37.825Z,100055.00
2022-08-26T00:39:18.497Z,100062.19
2022-08-26T00:39:58.557Z,100059.22
2022-08-26T00:40:50.487Z,100052.44
2022-08-26T00:41:37.535Z,100068.53
2022-08-26T00:42:11.217Z,100049.91
2022-08-26T00:42:58.485Z,100061.97
2022-08-26T00:43:46.229Z,100061.31
2022-08-26T00:44:35.496Z,100053.69
2022-08-26T00:45:11.636Z,100058.75
2022-08-26T00:46:04.541Z,100059.19
2022-08-26T00:46:55.517Z,100060.06
2022-08-26T00:47:59.546Z,100055.81
2022-08-26T00:48:40.480Z,100053.03
2022-08-26T00:49:41.552Z,100048.63
2022-08-26T00:50:30.476Z,100067.03
2022-08-26T00:51:22.569Z,100059.63
2022-08-26T00:52:06.517Z,100068.47
2022-08-26T00:52:51.605Z,100059.19
2022-08-26T00:53:36.473Z,100059.16
2022-08-26T00:54:17.565Z,100038.84
2022-08-26T00:55:20.364Z,100053.91
2022-08-26T00:56:14.846Z,100056.66
2022-08-26T00:57:16.369Z,100055.84
2022-08-26T00:57:57.590Z,100039.31
2022-08-26T00:58:40.487Z,100054.56
2022-08-26T00:59:22.560Z,100031.69
2022-08-26T01:00:05.499Z,100049.06
2022-08-26T01:00:45.659Z,100042.06
2022-08-26T01:01:26.514Z,100049.06
2022-08-26T01:02:08.581Z,100043.56
2022-08-26T01:03:02.488Z,100043.53
2022-08-26T01:03:47.613Z,100038.03
2022-08-26T01:04:29.474Z,100015.19
2022-08-26T01:05:11.716Z,100048.63
2022-08-26T01:05:53.483Z,100039.94
2022-08-26T01:06:34.534Z,100051.78
2022-08-26T01:07:15.465Z,100055.59
2022-08-26T01:07:56.524Z,100046.09
2022-08-26T01:08:36.510Z,100044.19
2022-08-26T01:09:17.533Z,100046.28
2022-08-26T01:09:58.440Z,100043.28
2022-08-26T01:10:40.538Z,100049.84
2022-08-26T01:11:21.490Z,100051.53
2022-08-26T01:12:05.543Z,100039.91
2022-08-26T01:12:52.461Z,100039.06
2022-08-26T01:13:33.568Z,100040.13
2022-08-26T01:14:15.484Z,100048.59
2022-08-26T01:14:56.628Z,100053.22
2022-08-26T01:15:40.452Z,100049.84
2022-08-26T01:16:25.465Z,100050.91
2022-08-26T01:17:10.471Z,100044.34
2022-08-26T01:17:50.548Z,100030.34
2022-08-26T01:18:33.461Z,100046.47
2022-08-26T01:19:34.514Z,100048.78
2022-08-26T01:20:34.374Z,100043.72
2022-08-26T01:21:40.625Z,100047.72
2022-08-26T01:22:22.990Z,100025.44
2022-08-26T01:23:21.731Z,100043.50
2022-08-26T01:23:58.459Z,100044.78
2022-08-26T01:24:45.484Z,100046.25
2022-08-26T01:25:25.466Z,100042.44
2022-08-26T01:26:19.883Z,100042.66
2022-08-26T01:26:59.320Z,100047.31
2022-08-26T01:27:49.222Z,100037.78
2022-08-26T01:28:28.255Z,100043.72
2022-08-26T01:29:20.216Z,100037.56
2022-08-26T01:30:00.494Z,100041.16
2022-08-26T01:30:42.542Z,100046.69
2022-08-26T01:31:25.500Z,100036.91
2022-08-26T01:32:06.508Z,100042.59
2022-08-26T01:32:47.454Z,100036.25
2022-08-26T01:33:39.992Z,100022.25
2022-08-26T01:34:29.459Z,100019.31
2022-08-26T01:35:17.459Z,100036.03
2022-08-26T01:35:53.441Z,100032.41
2022-08-26T01:36:41.468Z,100043.66
2022-08-26T01:37:26.335Z,100029.94
2022-08-26T01:38:13.452Z,100024.81
2022-08-26T01:38:47.193Z,100042.16
2022-08-26T01:39:35.457Z,100030.09
2022-08-26T01:40:14.343Z,100035.81
2022-08-26T01:40:57.536Z,100025.66
2022-08-26T01:41:31.563Z,100039.16
2022-08-26T01:42:11.329Z,100027.94
2022-08-26T01:42:55.445Z,100031.34
2022-08-26T01:43:31.572Z,100037.47
2022-08-26T01:44:13.076Z,100031.97
2022-08-26T01:45:16.445Z,100023.50
2022-08-26T01:45:54.491Z,100027.72
2022-08-26T01:46:37.471Z,100033.22
2022-08-26T01:47:20.498Z,100028.41
2022-08-26T01:48:03.428Z,100034.94
2022-08-26T01:48:44.507Z,100030.69
2022-08-26T01:49:26.449Z,100029.84
2022-08-26T01:50:13.616Z,100013.97
2022-08-26T01:50:59.467Z,100037.00
2022-08-26T01:51:50.474Z,100027.31
2022-08-26T01:52:28.422Z,100024.34
2022-08-26T01:53:24.431Z,100029.84
2022-08-26T01:53:58.460Z,100032.81
2022-08-26T01:54:50.456Z,100022.66
2022-08-26T01:55:33.098Z,100031.94
2022-08-26T01:56:22.450Z,100033.03
2022-08-26T01:57:04.464Z,100022.44
2022-08-26T01:57:44.490Z,100032.16
2022-08-26T01:58:33.435Z,100029.22
2022-08-26T01:59:17.737Z,100029.38
2022-08-26T02:00:02.432Z,100028.97
2022-08-26T02:00:44.135Z,100014.59
2022-08-26T02:01:28.914Z,100025.63
2022-08-26T02:02:17.470Z,100033.66
2022-08-26T02:03:13.637Z,100039.53
2022-08-26T02:04:34.487Z,100038.47
2022-08-26T02:05:12.162Z,100026.41
2022-08-26T02:06:04.421Z,100028.16
2022-08-26T02:06:39.134Z,100029.00
2022-08-26T02:07:27.439Z,100025.19
2022-08-26T02:08:01.401Z,100028.72
2022-08-26T02:08:50.471Z,100033.16
2022-08-26T02:09:25.262Z,100024.09
2022-08-26T02:10:13.430Z,100017.53
2022-08-26T02:10:48.177Z,100019.44
2022-08-26T02:11:36.830Z,100027.00
2022-08-26T02:12:12.909Z,100027.22
2022-08-26T02:12:55.452Z,100025.53
2022-08-26T02:13:33.652Z,100029.78
2022-08-26T02:14:26.932Z,100026.72
2022-08-26T02:15:12.419Z,100032.22
2022-08-26T02:15:49.676Z,100029.69
2022-08-26T02:16:26.247Z,100024.16
2022-08-26T02:17:07.417Z,100018.47
2022-08-26T02:17:46.554Z,100017.88
2022-08-26T02:18:29.450Z,100009.84
2022-08-26T02:19:16.872Z,100026.78
2022-08-26T02:19:58.400Z,100031.38
2022-08-26T02:20:38.503Z,100012.72
2022-08-26T02:21:19.396Z,100018.22
2022-08-26T02:22:00.479Z,100025.88
2022-08-26T02:22:42.425Z,100031.53
2022-08-26T02:23:26.495Z,100028.81
2022-08-26T02:24:18.445Z,100018.63
2022-08-26T02:25:03.493Z,100023.75
2022-08-26T02:26:19.491Z,100016.13
2022-08-26T02:27:01.387Z,100024.38
2022-08-26T02:27:43.401Z,100026.31
2022-08-26T02:28:26.684Z,100018.31
2022-08-26T02:29:23.440Z,100024.66
2022-08-26T02:30:24.473Z,100016.16
2022-08-26T02:31:06.443Z,100013.22
2022-08-26T02:31:48.543Z,100018.66
2022-08-26T02:32:28.406Z,100025.00
2022-08-26T02:33:09.564Z,100015.00
2022-08-26T02:33:49.388Z,100029.66
2022-08-26T02:34:45.429Z,100028.00
2022-08-26T02:35:22.712Z,100028.38
2022-08-26T02:36:10.400Z,100031.75
2022-08-26T02:36:46.178Z,100031.13
2022-08-26T02:37:33.985Z,100008.16
2022-08-26T02:38:11.234Z,100027.16
2022-08-26T02:38:58.392Z,100027.97
2022-08-26T02:39:33.011Z,100003.88
2022-08-26T02:40:16.498Z,100032.16
2022-08-26T02:40:50.495Z,100027.06
2022-08-26T02:41:25.133Z,100027.34
2022-08-26T02:42:06.392Z,100030.53
2022-08-26T02:42:40.538Z,100028.63
2022-08-26T02:43:16.901Z,100010.66
2022-08-26T02:43:57.400Z,100012.34
2022-08-26T02:44:32.472Z,100018.47
2022-08-26T02:45:09.441Z,100019.94
2022-08-26T02:45:50.493Z,100025.00
2022-08-26T02:46:30.052Z,100012.16
2022-08-26T02:47:04.296Z,100025.28
2022-08-26T02:47:45.377Z,100007.72
2022-08-26T02:48:25.517Z,100017.03
2022-08-26T02:48:59.433Z,100011.53
2022-08-26T02:49:39.401Z,100017.00
2022-08-26T02:50:18.448Z,100018.66
2022-08-26T02:50:58.444Z,100011.19
2022-08-26T02:51:39.463Z,100013.31
2022-08-26T02:52:20.381Z,100011.19
2022-08-26T02:53:01.669Z,100019.66
2022-08-26T02:53:42.384Z,100025.00
2022-08-26T02:54:25.465Z,100025.81
2022-08-26T02:55:05.401Z,100009.16
2022-08-26T02:55:49.356Z,100013.06
2022-08-26T02:56:30.418Z,100018.53
2022-08-26T02:57:11.535Z,100029.06
2022-08-26T02:57:51.374Z,100012.75
2022-08-26T02:58:32.443Z,100013.81
2022-08-26T02:59:12.377Z,100015.56
2022-08-26T02:59:52.439Z,100014.50
2022-08-26T03:00:32.386Z,100012.13
2022-08-26T03:01:13.572Z,100018.09
2022-08-26T03:01:56.508Z,100004.50
2022-08-26T03:02:36.480Z,100024.25
2022-08-26T03:03:16.381Z,100025.03
2022-08-26T03:03:58.490Z,100018.69
2022-08-26T03:04:38.369Z,100007.94
2022-08-26T03:05:22.066Z,100011.56
2022-08-26T03:06:04.378Z,100006.69
2022-08-26T03:06:46.968Z,100010.47
2022-08-26T03:07:33.431Z,100021.09
2022-08-26T03:08:15.533Z,100009.66
2022-08-26T03:08:55.382Z,100019.41
2022-08-26T03:09:35.432Z,100022.75
2022-08-26T03:10:16.382Z,100018.22
2022-08-26T03:10:56.454Z,100022.88
2022-08-26T03:11:38.369Z,100009.31
2022-08-26T03:12:20.329Z,100008.91
2022-08-26T03:13:01.445Z,100015.09
2022-08-26T03:13:46.484Z,100018.00
2022-08-26T03:14:27.379Z,100006.03
2022-08-26T03:15:16.497Z,100006.03
2022-08-26T03:15:58.389Z,100004.47
2022-08-26T03:16:43.507Z,100019.09
2022-08-26T03:17:23.364Z,100005.72
2022-08-26T03:18:14.403Z,100017.56
2022-08-26T03:18:52.288Z,100016.97
2022-08-26T03:19:39.349Z,100014.16
2022-08-26T03:20:17.357Z,100012.22
2022-08-26T03:21:04.378Z,100015.84
2022-08-26T03:21:39.356Z,100008.19
2022-08-26T03:22:27.369Z,100012.41
2022-08-26T03:23:01.164Z,100020.47
2022-08-26T03:23:42.388Z,100019.78
2022-08-26T03:24:19.435Z,100007.53
2022-08-26T03:24:54.405Z,100007.28
2022-08-26T03:25:35.349Z,100004.13
2022-08-26T03:26:10.911Z,100021.31
2022-08-26T03:26:52.743Z,100014.31
2022-08-26T03:27:33.358Z,100004.72
2022-08-26T03:28:07.696Z,100006.53
2022-08-26T03:29:09.401Z,100013.72
2022-08-26T03:30:08.293Z,100001.97
2022-08-26T03:30:52.344Z,100011.53
2022-08-26T03:31:32.485Z,100014.31
2022-08-26T03:32:13.349Z,99998.28
2022-08-26T03:32:53.481Z,99997.81
2022-08-26T03:33:34.373Z,100016.06
2022-08-26T03:34:22.408Z,100018.81
2022-08-26T03:34:56.513Z,100014.56
2022-08-26T03:35:45.408Z,100010.47
2022-08-26T03:36:19.328Z,100012.97
2022-08-26T03:37:07.369Z,100014.50
2022-08-26T03:37:42.223Z,100016.19
2022-08-26T03:38:31.353Z,100022.22
2022-08-26T03:39:06.454Z,100004.22
2022-08-26T03:39:47.398Z,100014.38
2022-08-26T03:40:21.479Z,100014.75
2022-08-26T03:40:56.232Z,100004.34
2022-08-26T03:41:39.364Z,100009.09
2022-08-26T03:42:13.656Z,99990.97
2022-08-26T03:42:48.055Z,100007.09
2022-08-26T03:43:33.345Z,99999.66
2022-08-26T03:44:08.782Z,100002.47
2022-08-26T03:44:43.186Z,100015.13
2022-08-26T03:45:26.361Z,100010.63
2022-08-26T03:46:00.410Z,100001.97
2022-08-26T03:46:35.194Z,100004.72
2022-08-26T03:47:16.399Z,99999.78
2022-08-26T03:47:51.410Z,100004.47
2022-08-26T03:48:27.032Z,100001.13
2022-08-26T03:49:09.361Z,100005.13
2022-08-26T03:49:43.544Z,100002.81
2022-08-26T03:50:22.869Z,100004.13
2022-08-26T03:51:05.432Z,100001.59
2022-08-26T03:51:40.449Z,100000.78
2022-08-26T03:52:16.056Z,100008.59
2022-08-26T03:52:59.344Z,99995.91
2022-08-26T03:53:34.413Z,99999.13
2022-08-26T03:54:10.103Z,100005.25
2022-08-26T03:54:50.339Z,100001.25
2022-08-26T03:55:25.474Z,99997.81
2022-08-26T03:56:01.229Z,99990.19
2022-08-26T03:56:43.359Z,100000.78
2022-08-26T03:57:20.735Z,99999.53
2022-08-26T03:57:56.117Z,99991.50
2022-08-26T03:58:38.333Z,99995.91
2022-08-26T03:59:12.449Z,100002.47
2022-08-26T03:59:46.035Z,99996.38
2022-08-26T04:00:27.343Z,99998.28
2022-08-26T04:01:01.401Z,99987.69
2022-08-26T04:01:36.189Z,100000.34
2022-08-26T04:02:17.352Z,99991.50
2022-08-26T04:02:55.454Z,100000.78
2022-08-26T04:03:48.782Z,99986.75
2022-08-26T04:04:28.320Z,100000.13
2022-08-26T04:05:02.544Z,100001.59
2022-08-26T04:05:37.408Z,100003.53
2022-08-26T04:06:19.333Z,100004.47
2022-08-26T04:06:53.428Z,99996.50
2022-08-26T04:07:34.363Z,100001.72
2022-08-26T04:08:14.412Z,100001.00
2022-08-26T04:08:54.326Z,100007.34
2022-08-26T04:09:35.140Z,99992.97
2022-08-26T04:10:20.268Z,99998.13
2022-08-26T04:11:01.235Z,99998.66
2022-08-26T04:11:45.305Z,99998.56
2022-08-26T04:12:28.429Z,100002.41
2022-08-26T04:13:09.448Z,99994.72
2022-08-26T04:13:49.448Z,99988.41
2022-08-26T04:14:33.328Z,100002.44
2022-08-26T04:15:18.422Z,99994.06
2022-08-26T04:15:58.343Z,99995.66
2022-08-26T04:16:39.392Z,99998.88
2022-08-26T04:17:25.075Z,99997.59
2022-08-26T04:18:06.376Z,100002.44
2022-08-26T04:18:47.344Z,100006.38
2022-08-26T04:19:29.392Z,99988.41
2022-08-26T04:20:12.332Z,99998.34
2022-08-26T04:20:53.388Z,100006.91
2022-08-26T04:21:34.317Z,100002.53
2022-08-26T04:22:14.461Z,100006.41
2022-08-26T04:23:04.344Z,100000.78
2022-08-26T04:23:54.340Z,100005.91
2022-08-26T04:24:28.420Z,100007.16
2022-08-26T04:25:15.310Z,100011.84
2022-08-26T04:25:50.177Z,100003.88
2022-08-26T04:26:39.576Z,100002.09
2022-08-26T04:27:17.060Z,99995.41
2022-08-26T04:28:04.326Z,100010.69
2022-08-26T04:28:38.050Z,99995.53
2022-08-26T04:29:26.328Z,100007.41
2022-08-26T04:30:00.512Z,100001.47
2022-08-26T04:30:38.130Z,100000.66
2022-08-26T04:31:21.348Z,100011.66
2022-08-26T04:31:55.913Z,100010.38
2022-08-26T04:32:30.008Z,100000.63
2022-08-26T04:33:12.579Z,100000.81
2022-08-26T04:33:49.635Z,99996.78
2022-08-26T04:34:35.346Z,100005.94
2022-08-26T04:35:15.399Z,100009.28
2022-08-26T04:35:56.316Z,99996.91
2022-08-26T04:36:36.780Z,99995.66
2022-08-26T04:37:18.313Z,100008.19
2022-08-26T04:37:58.858Z,99999.25
2022-08-26T04:38:41.323Z,100008.22
2022-08-26T04:39:22.411Z,100007.63
2022-08-26T04:40:03.407Z,100012.22
2022-08-26T04:40:50.400Z,99999.78
2022-08-26T04:41:31.543Z,100000.66
2022-08-26T04:42:13.357Z,100014.56
2022-08-26T04:42:53.296Z,100007.38
2022-08-26T04:43:34.368Z,100010.25
2022-08-26T04:44:14.296Z,100003.28
2022-08-26T04:44:55.792Z,100004.13
2022-08-26T04:45:36.346Z,99998.03
2022-08-26T04:46:17.433Z,100019.25
2022-08-26T04:47:00.299Z,99996.53
2022-08-26T04:47:40.492Z,100013.97
2022-08-26T04:48:22.286Z,100014.59
2022-08-26T04:49:02.367Z,100006.94
2022-08-26T04:49:42.296Z,100002.44
2022-08-26T04:50:23.570Z,100014.81
2022-08-26T04:51:06.389Z,100011.47
2022-08-26T04:51:48.781Z,100003.59
2022-08-26T04:52:30.295Z,100010.72
2022-08-26T04:53:12.420Z,100002.19
2022-08-26T04:53:53.300Z,100014.91
2022-08-26T04:54:33.385Z,100005.75
2022-08-26T04:55:14.308Z,100015.31
2022-08-26T04:55:55.231Z,100018.66
2022-08-26T04:56:45.300Z,100001.41
2022-08-26T04:57:26.341Z,100020.78
2022-08-26T04:58:06.293Z,100016.97
2022-08-26T04:58:49.492Z,100010.59
2022-08-26T04:59:29.284Z,100010.16
2022-08-26T05:00:15.369Z,100015.28
2022-08-26T05:00:59.297Z,100021.59
2022-08-26T05:01:40.425Z,100013.97
2022-08-26T05:02:20.338Z,100020.53
2022-08-26T05:03:00.519Z,100023.66
2022-08-26T05:03:40.962Z,100022.69
2022-08-26T05:04:22.487Z,100012.78
2022-08-26T05:05:02.286Z,100023.28
2022-08-26T05:05:46.344Z,100015.34
2022-08-26T05:06:27.286Z,100014.56
2022-08-26T05:07:09.476Z,100015.25
2022-08-26T05:07:51.304Z,100015.69
2022-08-26T05:08:32.357Z,100014.88
2022-08-26T05:09:13.275Z,100019.13
2022-08-26T05:09:55.345Z,100015.09
2022-08-26T05:10:35.268Z,100000.66
2022-08-26T05:11:16.406Z,100010.91
2022-08-26T05:11:57.287Z,100024.66
2022-08-26T05:12:38.421Z,100014.25
2022-08-26T05:13:24.308Z,100014.06
2022-08-26T05:14:05.934Z,100021.06
2022-08-26T05:14:48.276Z,100013.94
2022-08-26T05:15:28.341Z,100025.28
2022-08-26T05:16:16.349Z,100023.59
2022-08-26T05:16:57.349Z,100023.56
2022-08-26T05:17:38.295Z,100022.28
2022-08-26T05:18:21.234Z,100024.41
2022-08-26T05:19:04.315Z,100015.16
2022-08-26T05:19:44.396Z,100022.56
2022-08-26T05:20:26.191Z,100024.25
2022-08-26T05:21:09.036Z,100026.53
2022-08-26T05:21:50.284Z,100014.28
2022-08-26T05:22:30.308Z,100011.78
2022-08-26T05:23:11.301Z,100027.66
2022-08-26T05:23:52.492Z,100027.41
2022-08-26T05:24:32.318Z,100012.63
2022-08-26T05:25:14.844Z,100024.13
2022-08-26T05:26:00.421Z,100023.44
2022-08-26T05:26:41.333Z,100019.47
2022-08-26T05:27:23.269Z,100030.91
2022-08-26T05:28:04.573Z,100033.03
2022-08-26T05:28:46.253Z,100028.75
2022-08-26T05:29:29.389Z,100029.97
2022-08-26T05:30:10.286Z,100032.59
2022-08-26T05:30:50.395Z,100033.06
2022-08-26T05:31:35.418Z,100035.63
2022-08-26T05:32:15.401Z,100034.34
2022-08-26T05:32:57.285Z,100022.75
2022-08-26T05:33:37.342Z,100036.94
2022-08-26T05:34:21.259Z,100035.66
2022-08-26T05:35:02.318Z,100038.97
2022-08-26T05:35:45.292Z,100040.28
2022-08-26T05:36:29.329Z,100038.59
2022-08-26T05:37:13.615Z,100031.38
2022-08-26T05:37:53.540Z,100018.94
2022-08-26T05:38:35.261Z,100037.97
2022-08-26T05:39:15.392Z,100037.34
2022-08-26T05:39:56.281Z,100029.69
2022-08-26T05:40:42.335Z,100039.28
2022-08-26T05:41:36.464Z,100038.22
2022-08-26T05:42:17.348Z,100021.72
2022-08-26T05:42:59.264Z,100028.94
2022-08-26T05:43:39.358Z,100038.88
2022-08-26T05:44:25.256Z,100032.53
2022-08-26T05:45:06.322Z,100037.00
2022-08-26T05:45:54.282Z,100035.09
2022-08-26T05:46:42.329Z,100037.25
2022-08-26T05:47:17.926Z,100018.59
2022-08-26T05:48:06.245Z,100030.19
2022-08-26T05:48:41.332Z,100031.72
2022-08-26T05:49:31.246Z,100038.06
2022-08-26T05:50:05.804Z,100035.78
2022-08-26T05:50:58.265Z,100033.22
2022-08-26T05:51:32.075Z,100035.34
2022-08-26T05:52:13.345Z,100037.88
2022-08-26T05:52:47.342Z,100034.34
2022-08-26T05:53:22.562Z,100035.81
2022-08-26T05:54:05.236Z,100031.13
2022-08-26T05:54:39.327Z,100028.63
2022-08-26T05:55:13.932Z,100039.63
2022-08-26T05:56:00.224Z,100028.63
2022-08-26T05:56:34.288Z,100029.84
2022-08-26T05:57:11.211Z,100032.63
2022-08-26T05:57:52.286Z,100029.03
2022-08-26T05:58:28.374Z,100031.16
2022-08-26T05:59:05.330Z,100034.81
2022-08-26T05:59:46.242Z,100036.31
2022-08-26T06:00:22.456Z,100037.56
2022-08-26T06:01:22.230Z,100037.16
2022-08-26T06:02:05.336Z,100038.84
2022-08-26T06:02:40.018Z,100039.47
2022-08-26T06:03:22.295Z,100040.31
2022-08-26T06:04:06.386Z,100036.94
2022-08-26T06:04:46.310Z,100040.13
2022-08-26T06:05:27.369Z,100029.97
2022-08-26T06:06:20.134Z,100033.34
2022-08-26T06:07:07.457Z,100026.38
2022-08-26T06:08:11.427Z,100039.28
2022-08-26T06:08:52.308Z,100028.91
2022-08-26T06:09:26.903Z,100032.97
2022-08-26T06:10:21.617Z,100036.78
2022-08-26T06:11:07.285Z,100030.00
2022-08-26T06:11:41.394Z,100036.31
2022-08-26T06:12:16.987Z,100029.16
2022-08-26T06:13:04.566Z,100030.00
2022-08-26T06:13:46.355Z,100023.66
2022-08-26T06:14:26.345Z,100021.97
2022-08-26T06:15:06.338Z,100017.94
2022-08-26T06:15:53.280Z,100028.31
2022-08-26T06:16:34.930Z,100030.84
2022-08-26T06:17:23.258Z,100024.09
2022-08-26T06:17:57.830Z,100030.84
2022-08-26T06:18:50.344Z,100027.69
2022-08-26T06:19:24.387Z,100033.41
2022-08-26T06:20:05.281Z,100031.28
2022-08-26T06:20:53.702Z,100036.78
2022-08-26T06:21:41.285Z,100036.78
2022-08-26T06:22:42.167Z,100034.25
2022-08-26T06:23:44.277Z,100030.22
2022-08-26T06:24:43.166Z,100032.13
2022-08-26T06:25:42.333Z,100033.00
2022-08-26T06:26:24.353Z,100025.38
2022-08-26T06:27:16.246Z,100025.38
2022-08-26T06:27:56.358Z,100019.44
2022-08-26T06:28:38.229Z,100026.84
2022-08-26T06:29:24.726Z,100033.84
2022-08-26T06:30:06.250Z,100028.97
2022-08-26T06:30:55.372Z,100024.09
2022-08-26T06:31:51.261Z,100025.16
2022-08-26T06:32:46.378Z,100024.97
2022-08-26T06:33:43.244Z,100020.72
2022-08-26T06:34:38.206Z,100025.38
2022-08-26T06:35:32.222Z,100010.56
2022-08-26T06:36:26.304Z,100026.88
2022-08-26T06:37:02.162Z,100033.81
2022-08-26T06:37:50.230Z,100025.81
2022-08-26T06:38:24.329Z,100024.34
2022-08-26T06:39:16.225Z,100020.72
2022-08-26T06:39:51.182Z,100026.03
2022-08-26T06:40:39.232Z,100027.50
2022-08-26T06:41:15.395Z,100016.47
2022-08-26T06:41:55.260Z,100017.78
2022-08-26T06:42:35.335Z,100028.78
2022-08-26T06:43:17.288Z,100029.84
2022-08-26T06:43:58.349Z,100027.94
2022-08-26T06:44:40.984Z,100025.78
2022-08-26T06:45:24.438Z,100028.34
2022-08-26T06:46:17.302Z,100026.66
2022-08-26T06:47:04.262Z,100024.13
2022-08-26T06:47:58.230Z,100015.88
2022-08-26T06:48:53.216Z,100019.44
2022-08-26T06:49:48.272Z,100027.06
2022-08-26T06:50:43.226Z,100023.06
2022-08-26T06:51:44.217Z,100023.69
2022-08-26T06:52:25.413Z,100009.31
2022-08-26T06:53:05.350Z,100024.94
2022-08-26T06:53:47.224Z,100025.16
2022-08-26T06:54:30.250Z,100023.88
2022-08-26T06:55:11.208Z,100016.25
2022-08-26T06:55:53.332Z,100017.94
2022-08-26T06:56:43.237Z,100014.75
2022-08-26T06:57:23.366Z,100024.09
2022-08-26T06:58:05.228Z,100019.66
2022-08-26T06:59:01.205Z,100021.97
2022-08-26T06:59:55.221Z,100008.81
2022-08-26T07:00:51.398Z,100017.28
2022-08-26T07:01:51.267Z,100021.28
2022-08-26T07:02:46.915Z,100021.09
2022-08-26T07:03:28.304Z,100021.53
2022-08-26T07:04:12.278Z,100025.31
2022-08-26T07:04:53.241Z,100028.69
2022-08-26T07:05:39.328Z,100014.94
2022-08-26T07:06:20.192Z,100024.66
2022-08-26T07:07:04.396Z,100024.03
2022-08-26T07:07:45.230Z,100022.31
2022-08-26T07:08:25.353Z,100029.50
2022-08-26T07:09:12.292Z,100031.66
2022-08-26T07:09:54.432Z,100025.25
2022-08-26T07:10:35.270Z,100031.38
2022-08-26T07:11:19.406Z,100015.53
2022-08-26T07:12:02.203Z,100025.88
2022-08-26T07:12:43.292Z,100029.50
2022-08-26T07:13:30.874Z,100025.72
2022-08-26T07:14:11.415Z,100025.72
2022-08-26T07:14:51.413Z,100024.19
2022-08-26T07:15:32.373Z,100026.53
2022-08-26T07:16:19.285Z,100037.13
2022-08-26T07:17:01.274Z,100018.47
2022-08-26T07:17:43.223Z,100022.94
2022-08-26T07:18:25.733Z,100024.38
2022-08-26T07:19:11.138Z,100010.44
2022-08-26T07:20:01.230Z,100027.13
2022-08-26T07:20:55.213Z,100026.69
2022-08-26T07:21:51.218Z,100018.03
2022-08-26T07:22:46.204Z,100021.41
2022-08-26T07:23:40.187Z,100029.00
2022-08-26T07:24:35.373Z,100021.19
2022-08-26T07:25:22.222Z,100027.13
2022-08-26T07:25:56.343Z,100026.03
2022-08-26T07:26:45.182Z,100022.25
2022-08-26T07:27:23.241Z,100025.63
2022-08-26T07:28:11.194Z,100019.69
2022-08-26T07:28:46.264Z,100014.81
2022-08-26T07:29:33.209Z,100013.72
2022-08-26T07:30:08.268Z,100025.13
2022-08-26T07:30:49.233Z,100028.50
2022-08-26T07:31:39.441Z,100012.47
2022-08-26T07:32:27.186Z,100021.31
2022-08-26T07:33:07.456Z,100029.16
2022-08-26T07:33:50.183Z,100026.38
2022-08-26T07:34:32.323Z,100019.53
2022-08-26T07:35:14.197Z,100023.78
2022-08-26T07:36:01.303Z,100014.47
2022-08-26T07:36:58.735Z,100032.69
2022-08-26T07:37:56.945Z,100030.75
2022-08-26T07:38:54.213Z,100022.06
2022-08-26T07:39:49.267Z,100031.41
2022-08-26T07:40:43.233Z,100029.25
2022-08-26T07:41:26.324Z,100031.78
2022-08-26T07:42:09.247Z,100030.03
2022-08-26T07:42:51.246Z,100025.84
2022-08-26T07:43:33.521Z,100025.38
2022-08-26T07:44:15.178Z,100027.47
2022-08-26T07:44:56.255Z,100027.91
2022-08-26T07:45:38.405Z,100024.09
2022-08-26T07:46:20.733Z,100020.25
2022-08-26T07:47:10.466Z,100026.56
2022-08-26T07:48:07.260Z,100023.19
2022-08-26T07:48:48.226Z,100022.53
2022-08-26T07:49:31.374Z,100026.13
2022-08-26T07:50:13.190Z,100026.97
2022-08-26T07:50:54.250Z,100027.81
2022-08-26T07:51:36.170Z,100014.22
2022-08-26T07:52:27.075Z,100020.38
2022-08-26T07:53:22.164Z,100027.34
2022-08-26T07:54:07.054Z,100022.66
2022-08-26T07:54:55.268Z,100021.34
2022-08-26T07:55:30.318Z,100024.56
2022-08-26T07:56:17.193Z,100009.53
2022-08-26T07:56:51.000Z,100018.75
2022-08-26T07:57:41.196Z,100020.91
2022-08-26T07:58:15.007Z,100029.13
2022-08-26T07:59:13.779Z,100013.00
2022-08-26T07:59:48.869Z,100015.72
2022-08-26T08:00:39.204Z,100019.91
2022-08-26T08:01:12.951Z,100020.75
2022-08-26T08:02:01.228Z,100017.97
2022-08-26T08:02:35.028Z,100012.09
2022-08-26T08:03:17.186Z,100024.06
2022-08-26T08:03:52.334Z,100022.59
2022-08-26T08:04:27.333Z,100027.44
2022-08-26T08:05:08.316Z,100009.63
2022-08-26T08:05:43.293Z,100021.84
2022-08-26T08:06:22.318Z,100013.81
2022-08-26T08:07:03.184Z,100028.19
2022-08-26T08:07:44.782Z,100014.00
2022-08-26T08:08:29.278Z,100020.91
2022-08-26T08:09:11.299Z,100008.66
2022-08-26T08:09:52.267Z,100020.63
2022-08-26T08:10:34.375Z,100023.38
2022-08-26T08:11:15.182Z,100004.75
2022-08-26T08:11:56.260Z,100015.25